PHZTM EHTE-EDLS
Flight info
| Callsign | PHZTM |
|---|---|
| Flight time | 0h 11m |
| Altitude | 3500 |
| Route | SONEB |
| Aircraft | AEST/L-SDFGRWY/S |
Departure
| Time | 2026-04-28 09:34 |
|---|---|
| Airport | Teuge Airport (EHTE) |
Arrival
| Time | 2026-04-28 09:45 |
|---|---|
| Airport | Stadtlohn-Vreden Airfield (EDLS) |
| Time | Latitude | Longitude | Altitude | Speed | Heading |
|---|---|---|---|---|---|
| 2026-04-28 09:27 | 52.24146 | 6.04721 | 20 ft | 0 kts | 265° |
| 2026-04-28 09:29 | 52.24145 | 6.04720 | 20 ft | 1 kts | 264° |
| 2026-04-28 09:29 | 52.24144 | 6.04704 | 20 ft | 0 kts | 260° |
| 2026-04-28 09:29 | 52.24176 | 6.04662 | 20 ft | 9 kts | 264° |
| 2026-04-28 09:29 | 52.24168 | 6.04554 | 20 ft | 11 kts | 265° |
| 2026-04-28 09:30 | 52.24162 | 6.04423 | 20 ft | 13 kts | 266° |
| 2026-04-28 09:30 | 52.24156 | 6.04283 | 20 ft | 4 kts | 268° |
| 2026-04-28 09:30 | 52.24156 | 6.04272 | 20 ft | 3 kts | 277° |
| 2026-04-28 09:30 | 52.24177 | 6.04237 | 20 ft | 6 kts | 333° |
| 2026-04-28 09:31 | 52.24195 | 6.04218 | 20 ft | 0 kts | 322° |
| 2026-04-28 09:31 | 52.24196 | 6.04217 | 20 ft | 1 kts | 322° |
| 2026-04-28 09:31 | 52.24198 | 6.04214 | 20 ft | 0 kts | 322° |
| 2026-04-28 09:32 | 52.24199 | 6.04214 | 20 ft | 0 kts | 322° |
| 2026-04-28 09:32 | 52.24237 | 6.04179 | 19 ft | 8 kts | 22° |
| 2026-04-28 09:33 | 52.24245 | 6.04199 | 19 ft | 0 kts | 84° |
| 2026-04-28 09:33 | 52.24253 | 6.04385 | 19 ft | 57 kts | 84° |
| 2026-04-28 09:33 | 52.24300 | 6.05345 | 103 ft | 99 kts | 84° |
| 2026-04-28 09:33 | 52.24397 | 6.06634 | 415 ft | 126 kts | 70° |
| 2026-04-28 09:34 | 52.24758 | 6.08068 | 780 ft | 147 kts | 64° |
| 2026-04-28 09:34 | 52.25233 | 6.09633 | 1179 ft | 157 kts | 62° |
| 2026-04-28 09:34 | 52.25730 | 6.11241 | 1637 ft | 160 kts | 63° |
| 2026-04-28 09:34 | 52.26232 | 6.12865 | 2097 ft | 161 kts | 63° |
| 2026-04-28 09:35 | 52.26745 | 6.14503 | 2523 ft | 162 kts | 63° |
| 2026-04-28 09:35 | 52.27092 | 6.16216 | 2940 ft | 159 kts | 88° |
| 2026-04-28 09:35 | 52.26769 | 6.17912 | 3364 ft | 161 kts | 122° |
| 2026-04-28 09:35 | 52.25927 | 6.19255 | 3573 ft | 181 kts | 130° |
| 2026-04-28 09:36 | 52.25090 | 6.20902 | 3510 ft | 199 kts | 121° |
| 2026-04-28 09:36 | 52.24298 | 6.22829 | 3450 ft | 208 kts | 118° |
| 2026-04-28 09:36 | 52.23501 | 6.24829 | 3450 ft | 212 kts | 119° |
| 2026-04-28 09:36 | 52.22685 | 6.26845 | 3458 ft | 213 kts | 119° |
| 2026-04-28 09:37 | 52.21860 | 6.28865 | 3459 ft | 214 kts | 119° |
| 2026-04-28 09:37 | 52.21035 | 6.30896 | 3459 ft | 215 kts | 119° |
| 2026-04-28 09:37 | 52.20212 | 6.32924 | 3451 ft | 213 kts | 119° |
| 2026-04-28 09:37 | 52.19399 | 6.34932 | 3447 ft | 211 kts | 119° |
| 2026-04-28 09:38 | 52.18585 | 6.36929 | 3460 ft | 212 kts | 120° |
| 2026-04-28 09:38 | 52.17766 | 6.38931 | 3452 ft | 212 kts | 119° |
| 2026-04-28 09:38 | 52.16947 | 6.40936 | 3450 ft | 211 kts | 119° |
| 2026-04-28 09:38 | 52.16136 | 6.42923 | 3457 ft | 211 kts | 119° |
| 2026-04-28 09:39 | 52.15317 | 6.44928 | 3447 ft | 211 kts | 120° |
| 2026-04-28 09:39 | 52.14507 | 6.46911 | 3452 ft | 210 kts | 120° |
| 2026-04-28 09:39 | 52.13617 | 6.48767 | 3462 ft | 211 kts | 127° |
| 2026-04-28 09:39 | 52.12627 | 6.50539 | 3452 ft | 212 kts | 128° |
| 2026-04-28 09:40 | 52.11643 | 6.52331 | 3439 ft | 212 kts | 127° |
| 2026-04-28 09:40 | 52.10674 | 6.54143 | 3447 ft | 212 kts | 126° |
| 2026-04-28 09:40 | 52.09708 | 6.55957 | 3444 ft | 212 kts | 127° |
| 2026-04-28 09:40 | 52.08742 | 6.57761 | 3453 ft | 212 kts | 127° |
| 2026-04-28 09:41 | 52.07769 | 6.59574 | 3441 ft | 212 kts | 127° |
| 2026-04-28 09:41 | 52.06773 | 6.61433 | 3163 ft | 224 kts | 127° |
| 2026-04-28 09:41 | 52.05733 | 6.63367 | 2886 ft | 230 kts | 127° |
| 2026-04-28 09:41 | 52.04702 | 6.65276 | 2605 ft | 218 kts | 127° |
| 2026-04-28 09:42 | 52.03724 | 6.67093 | 2327 ft | 205 kts | 127° |
| 2026-04-28 09:42 | 52.02835 | 6.68740 | 2051 ft | 190 kts | 127° |
| 2026-04-28 09:42 | 52.02045 | 6.70385 | 1767 ft | 180 kts | 115° |
| 2026-04-28 09:42 | 52.01675 | 6.72019 | 1466 ft | 129 kts | 101° |
| 2026-04-28 09:43 | 52.01435 | 6.73407 | 1200 ft | 126 kts | 101° |
| 2026-04-28 09:43 | 52.01202 | 6.74758 | 982 ft | 123 kts | 101° |
| 2026-04-28 09:43 | 52.01016 | 6.76033 | 926 ft | 112 kts | 97° |
| 2026-04-28 09:43 | 52.00837 | 6.77236 | 871 ft | 107 kts | 101° |
| 2026-04-28 09:44 | 52.00608 | 6.78371 | 833 ft | 107 kts | 104° |
| 2026-04-28 09:44 | 52.00380 | 6.79509 | 776 ft | 107 kts | 102° |
| 2026-04-28 09:44 | 52.00182 | 6.80657 | 572 ft | 102 kts | 102° |
| 2026-04-28 09:44 | 51.99992 | 6.81713 | 424 ft | 93 kts | 102° |
| 2026-04-28 09:45 | 51.99815 | 6.82708 | 281 ft | 91 kts | 99° |
| 2026-04-28 09:45 | 51.99652 | 6.83614 | 161 ft | 67 kts | 99° |
| 2026-04-28 09:45 | 51.99590 | 6.84014 | 159 ft | 11 kts | 94° |
| 2026-04-28 09:45 | 51.99625 | 6.84081 | 159 ft | 7 kts | 96° |
| 2026-04-28 09:46 | 51.99606 | 6.84189 | 161 ft | 12 kts | 107° |
| 2026-04-28 09:46 | 51.99580 | 6.84337 | 163 ft | 13 kts | 105° |
| 2026-04-28 09:46 | 51.99584 | 6.84416 | 162 ft | 0 kts | 189° |